sensor_id;sensor_type;location;lat;lon;timestamp;P1;durP1;ratioP1;P2;durP2;ratioP2
75689;SDS011;64303;53.118;9.044;2023-09-12T00:01:19;45.55;;;27.02;;
75689;SDS011;64303;53.118;9.044;2023-09-12T00:03:46;47.20;;;25.77;;
75689;SDS011;64303;53.118;9.044;2023-09-12T00:06:13;45.95;;;27.58;;
75689;SDS011;64303;53.118;9.044;2023-09-12T00:08:39;49.67;;;25.75;;
75689;SDS011;64303;53.118;9.044;2023-09-12T00:11:06;48.63;;;27.17;;
75689;SDS011;64303;53.118;9.044;2023-09-12T00:13:36;44.92;;;24.85;;
75689;SDS011;64303;53.118;9.044;2023-09-12T00:16:04;47.05;;;26.90;;
75689;SDS011;64303;53.118;9.044;2023-09-12T00:18:32;45.00;;;25.25;;
75689;SDS011;64303;53.118;9.044;2023-09-12T00:21:00;47.35;;;26.55;;
75689;SDS011;64303;53.118;9.044;2023-09-12T00:23:28;47.38;;;28.23;;
75689;SDS011;64303;53.118;9.044;2023-09-12T00:25:54;44.92;;;26.50;;
75689;SDS011;64303;53.118;9.044;2023-09-12T00:28:21;48.47;;;26.45;;
75689;SDS011;64303;53.118;9.044;2023-09-12T00:30:48;46.40;;;28.10;;
75689;SDS011;64303;53.118;9.044;2023-09-12T00:33:15;48.72;;;27.30;;
75689;SDS011;64303;53.118;9.044;2023-09-12T00:35:43;51.28;;;27.88;;
75689;SDS011;64303;53.118;9.044;2023-09-12T00:38:10;57.08;;;28.90;;
75689;SDS011;64303;53.118;9.044;2023-09-12T00:40:37;52.08;;;29.83;;
75689;SDS011;64303;53.118;9.044;2023-09-12T00:43:04;54.67;;;31.98;;
75689;SDS011;64303;53.118;9.044;2023-09-12T00:45:30;55.15;;;29.55;;
75689;SDS011;64303;53.118;9.044;2023-09-12T00:47:57;57.35;;;29.45;;
75689;SDS011;64303;53.118;9.044;2023-09-12T00:50:24;59.08;;;29.45;;
75689;SDS011;64303;53.118;9.044;2023-09-12T00:52:53;55.60;;;27.58;;
75689;SDS011;64303;53.118;9.044;2023-09-12T00:55:20;56.28;;;28.85;;
75689;SDS011;64303;53.118;9.044;2023-09-12T00:57:47;50.25;;;26.65;;
75689;SDS011;64303;53.118;9.044;2023-09-12T01:00:14;54.30;;;27.08;;
75689;SDS011;64303;53.118;9.044;2023-09-12T01:02:41;53.60;;;28.92;;
75689;SDS011;64303;53.118;9.044;2023-09-12T01:05:09;53.40;;;29.33;;
75689;SDS011;64303;53.118;9.044;2023-09-12T01:07:37;55.58;;;34.60;;
75689;SDS011;64303;53.118;9.044;2023-09-12T01:10:06;53.80;;;28.77;;
75689;SDS011;64303;53.118;9.044;2023-09-12T01:12:34;48.42;;;26.63;;
75689;SDS011;64303;53.118;9.044;2023-09-12T01:15:00;56.22;;;30.13;;
75689;SDS011;64303;53.118;9.044;2023-09-12T01:17:28;54.05;;;27.73;;
75689;SDS011;64303;53.118;9.044;2023-09-12T01:19:55;59.75;;;31.65;;
75689;SDS011;64303;53.118;9.044;2023-09-12T01:22:26;58.83;;;30.95;;
75689;SDS011;64303;53.118;9.044;2023-09-12T01:25:11;56.13;;;31.10;;
75689;SDS011;64303;53.118;9.044;2023-09-12T01:27:46;58.55;;;29.98;;
75689;SDS011;64303;53.118;9.044;2023-09-12T01:30:15;61.75;;;32.42;;
75689;SDS011;64303;53.118;9.044;2023-09-12T01:32:44;65.68;;;32.58;;
75689;SDS011;64303;53.118;9.044;2023-09-12T01:35:12;55.50;;;29.95;;
75689;SDS011;64303;53.118;9.044;2023-09-12T01:37:39;55.17;;;28.73;;
75689;SDS011;64303;53.118;9.044;2023-09-12T01:40:06;58.80;;;32.30;;
75689;SDS011;64303;53.118;9.044;2023-09-12T01:42:35;55.95;;;29.85;;
75689;SDS011;64303;53.118;9.044;2023-09-12T01:45:05;54.53;;;29.90;;
75689;SDS011;64303;53.118;9.044;2023-09-12T01:47:32;54.00;;;29.98;;
75689;SDS011;64303;53.118;9.044;2023-09-12T01:50:00;56.75;;;30.58;;
75689;SDS011;64303;53.118;9.044;2023-09-12T01:54:55;61.45;;;30.65;;
75689;SDS011;64303;53.118;9.044;2023-09-12T01:57:22;59.55;;;28.25;;
75689;SDS011;64303;53.118;9.044;2023-09-12T01:59:49;54.17;;;29.13;;
75689;SDS011;64303;53.118;9.044;2023-09-12T02:02:18;55.92;;;30.30;;
75689;SDS011;64303;53.118;9.044;2023-09-12T02:04:45;60.15;;;29.75;;
75689;SDS011;64303;53.118;9.044;2023-09-12T02:07:14;60.67;;;31.42;;
75689;SDS011;64303;53.118;9.044;2023-09-12T02:09:41;53.17;;;29.73;;
75689;SDS011;64303;53.118;9.044;2023-09-12T02:12:08;60.20;;;31.98;;
75689;SDS011;64303;53.118;9.044;2023-09-12T02:14:35;57.25;;;28.55;;
75689;SDS011;64303;53.118;9.044;2023-09-12T02:17:01;63.75;;;32.75;;
75689;SDS011;64303;53.118;9.044;2023-09-12T02:19:29;55.70;;;30.10;;
75689;SDS011;64303;53.118;9.044;2023-09-12T02:21:56;65.82;;;32.97;;
75689;SDS011;64303;53.118;9.044;2023-09-12T02:24:23;56.88;;;31.13;;
75689;SDS011;64303;53.118;9.044;2023-09-12T02:26:50;61.67;;;30.85;;
75689;SDS011;64303;53.118;9.044;2023-09-12T02:29:17;63.47;;;30.02;;
75689;SDS011;64303;53.118;9.044;2023-09-12T02:31:43;55.20;;;28.13;;
75689;SDS011;64303;53.118;9.044;2023-09-12T02:34:10;60.45;;;30.55;;
75689;SDS011;64303;53.118;9.044;2023-09-12T02:36:38;57.85;;;31.55;;
75689;SDS011;64303;53.118;9.044;2023-09-12T02:39:04;59.28;;;30.45;;
75689;SDS011;64303;53.118;9.044;2023-09-12T02:41:31;60.15;;;31.55;;
75689;SDS011;64303;53.118;9.044;2023-09-12T02:43:58;64.18;;;34.92;;
75689;SDS011;64303;53.118;9.044;2023-09-12T02:46:25;54.95;;;29.95;;
75689;SDS011;64303;53.118;9.044;2023-09-12T02:48:51;54.97;;;29.52;;
75689;SDS011;64303;53.118;9.044;2023-09-12T02:51:18;55.63;;;28.83;;
75689;SDS011;64303;53.118;9.044;2023-09-12T02:53:46;60.58;;;32.28;;
75689;SDS011;64303;53.118;9.044;2023-09-12T02:56:13;56.40;;;30.95;;
75689;SDS011;64303;53.118;9.044;2023-09-12T02:58:39;54.60;;;29.63;;
75689;SDS011;64303;53.118;9.044;2023-09-12T03:01:06;61.25;;;30.13;;
75689;SDS011;64303;53.118;9.044;2023-09-12T03:03:32;63.47;;;31.52;;
75689;SDS011;64303;53.118;9.044;2023-09-12T03:06:00;63.47;;;33.70;;
75689;SDS011;64303;53.118;9.044;2023-09-12T03:08:27;69.95;;;32.13;;
75689;SDS011;64303;53.118;9.044;2023-09-12T03:10:56;70.90;;;33.20;;
75689;SDS011;64303;53.118;9.044;2023-09-12T03:13:23;69.53;;;34.13;;
75689;SDS011;64303;53.118;9.044;2023-09-12T03:15:51;62.70;;;32.58;;
75689;SDS011;64303;53.118;9.044;2023-09-12T03:18:18;62.67;;;30.75;;
75689;SDS011;64303;53.118;9.044;2023-09-12T03:20:45;65.72;;;35.95;;
75689;SDS011;64303;53.118;9.044;2023-09-12T03:23:11;56.15;;;31.98;;
75689;SDS011;64303;53.118;9.044;2023-09-12T03:25:38;66.85;;;34.88;;
75689;SDS011;64303;53.118;9.044;2023-09-12T03:28:06;69.50;;;34.30;;
75689;SDS011;64303;53.118;9.044;2023-09-12T03:30:34;69.32;;;33.22;;
75689;SDS011;64303;53.118;9.044;2023-09-12T03:35:28;66.65;;;32.30;;
75689;SDS011;64303;53.118;9.044;2023-09-12T03:37:55;72.53;;;33.65;;
75689;SDS011;64303;53.118;9.044;2023-09-12T03:40:22;71.15;;;35.03;;
75689;SDS011;64303;53.118;9.044;2023-09-12T03:42:49;72.30;;;35.30;;
75689;SDS011;64303;53.118;9.044;2023-09-12T03:45:17;76.03;;;35.35;;
75689;SDS011;64303;53.118;9.044;2023-09-12T03:47:44;81.30;;;37.75;;
75689;SDS011;64303;53.118;9.044;2023-09-12T03:50:12;84.18;;;36.72;;
75689;SDS011;64303;53.118;9.044;2023-09-12T03:52:39;76.85;;;36.80;;
75689;SDS011;64303;53.118;9.044;2023-09-12T03:55:06;77.25;;;37.38;;
75689;SDS011;64303;53.118;9.044;2023-09-12T03:57:33;79.32;;;35.45;;
75689;SDS011;64303;53.118;9.044;2023-09-12T04:00:00;78.05;;;37.60;;
75689;SDS011;64303;53.118;9.044;2023-09-12T04:02:40;88.57;;;37.55;;
75689;SDS011;64303;53.118;9.044;2023-09-12T04:05:07;84.68;;;38.25;;
75689;SDS011;64303;53.118;9.044;2023-09-12T04:07:34;76.88;;;36.17;;
75689;SDS011;64303;53.118;9.044;2023-09-12T04:10:01;77.03;;;33.00;;
75689;SDS011;64303;53.118;9.044;2023-09-12T04:12:28;78.80;;;35.28;;
75689;SDS011;64303;53.118;9.044;2023-09-12T04:14:55;77.45;;;36.47;;
75689;SDS011;64303;53.118;9.044;2023-09-12T04:17:21;81.40;;;37.70;;
75689;SDS011;64303;53.118;9.044;2023-09-12T04:19:50;73.38;;;35.50;;
75689;SDS011;64303;53.118;9.044;2023-09-12T04:22:17;71.97;;;33.08;;
75689;SDS011;64303;53.118;9.044;2023-09-12T04:24:44;74.35;;;35.67;;
75689;SDS011;64303;53.118;9.044;2023-09-12T04:27:11;68.47;;;32.75;;
75689;SDS011;64303;53.118;9.044;2023-09-12T04:29:37;69.05;;;34.63;;
75689;SDS011;64303;53.118;9.044;2023-09-12T04:32:04;77.72;;;34.40;;
75689;SDS011;64303;53.118;9.044;2023-09-12T04:34:32;75.35;;;35.90;;
75689;SDS011;64303;53.118;9.044;2023-09-12T04:37:00;70.65;;;36.70;;
75689;SDS011;64303;53.118;9.044;2023-09-12T04:39:27;69.97;;;34.63;;
75689;SDS011;64303;53.118;9.044;2023-09-12T04:41:55;75.13;;;34.45;;
75689;SDS011;64303;53.118;9.044;2023-09-12T04:44:22;67.85;;;32.05;;
75689;SDS011;64303;53.118;9.044;2023-09-12T04:46:48;67.25;;;31.58;;
75689;SDS011;64303;53.118;9.044;2023-09-12T04:49:15;64.63;;;33.50;;
75689;SDS011;64303;53.118;9.044;2023-09-12T04:51:42;70.93;;;34.00;;
75689;SDS011;64303;53.118;9.044;2023-09-12T04:54:10;66.82;;;29.98;;
75689;SDS011;64303;53.118;9.044;2023-09-12T04:56:36;69.82;;;32.95;;
75689;SDS011;64303;53.118;9.044;2023-09-12T04:59:03;58.97;;;29.00;;
75689;SDS011;64303;53.118;9.044;2023-09-12T05:01:32;59.50;;;32.28;;
75689;SDS011;64303;53.118;9.044;2023-09-12T05:03:59;63.05;;;31.95;;
75689;SDS011;64303;53.118;9.044;2023-09-12T05:06:25;66.22;;;31.33;;
75689;SDS011;64303;53.118;9.044;2023-09-12T05:08:52;62.83;;;29.92;;
75689;SDS011;64303;53.118;9.044;2023-09-12T05:11:21;61.28;;;31.88;;
75689;SDS011;64303;53.118;9.044;2023-09-12T05:13:49;67.78;;;31.67;;
75689;SDS011;64303;53.118;9.044;2023-09-12T05:16:15;64.05;;;32.90;;
75689;SDS011;64303;53.118;9.044;2023-09-12T05:18:42;62.83;;;31.77;;
75689;SDS011;64303;53.118;9.044;2023-09-12T05:21:09;67.57;;;32.28;;
75689;SDS011;64303;53.118;9.044;2023-09-12T05:23:36;59.22;;;31.83;;
75689;SDS011;64303;53.118;9.044;2023-09-12T05:26:02;68.32;;;33.63;;
75689;SDS011;64303;53.118;9.044;2023-09-12T05:28:31;66.70;;;32.45;;
75689;SDS011;64303;53.118;9.044;2023-09-12T05:30:57;69.18;;;34.35;;
75689;SDS011;64303;53.118;9.044;2023-09-12T05:33:24;67.22;;;31.58;;
75689;SDS011;64303;53.118;9.044;2023-09-12T05:35:51;73.30;;;31.65;;
75689;SDS011;64303;53.118;9.044;2023-09-12T05:38:18;67.95;;;32.30;;
75689;SDS011;64303;53.118;9.044;2023-09-12T05:40:45;93.97;;;34.75;;
75689;SDS011;64303;53.118;9.044;2023-09-12T05:43:11;96.93;;;32.83;;
75689;SDS011;64303;53.118;9.044;2023-09-12T05:45:39;113.22;;;37.13;;
75689;SDS011;64303;53.118;9.044;2023-09-12T05:48:06;79.75;;;31.67;;
75689;SDS011;64303;53.118;9.044;2023-09-12T05:50:36;127.18;;;35.97;;
75689;SDS011;64303;53.118;9.044;2023-09-12T05:53:03;127.38;;;35.75;;
75689;SDS011;64303;53.118;9.044;2023-09-12T05:55:29;152.90;;;39.17;;
75689;SDS011;64303;53.118;9.044;2023-09-12T05:57:56;106.05;;;34.13;;
75689;SDS011;64303;53.118;9.044;2023-09-12T06:00:23;110.40;;;34.83;;
75689;SDS011;64303;53.118;9.044;2023-09-12T06:02:51;110.78;;;31.63;;
75689;SDS011;64303;53.118;9.044;2023-09-12T06:05:18;109.80;;;33.90;;
75689;SDS011;64303;53.118;9.044;2023-09-12T06:07:45;105.63;;;34.08;;
75689;SDS011;64303;53.118;9.044;2023-09-12T06:10:12;102.82;;;34.47;;
75689;SDS011;64303;53.118;9.044;2023-09-12T06:12:38;94.95;;;34.25;;
75689;SDS011;64303;53.118;9.044;2023-09-12T06:15:05;84.43;;;36.00;;
75689;SDS011;64303;53.118;9.044;2023-09-12T06:17:32;73.47;;;31.95;;
75689;SDS011;64303;53.118;9.044;2023-09-12T06:20:00;88.88;;;36.47;;
75689;SDS011;64303;53.118;9.044;2023-09-12T06:22:29;86.57;;;37.78;;
75689;SDS011;64303;53.118;9.044;2023-09-12T06:24:55;69.85;;;33.03;;
75689;SDS011;64303;53.118;9.044;2023-09-12T06:27:22;80.22;;;35.13;;
75689;SDS011;64303;53.118;9.044;2023-09-12T06:29:48;86.95;;;35.15;;
75689;SDS011;64303;53.118;9.044;2023-09-12T06:32:16;74.68;;;35.58;;
75689;SDS011;64303;53.118;9.044;2023-09-12T06:34:44;74.47;;;35.75;;
75689;SDS011;64303;53.118;9.044;2023-09-12T06:37:13;75.90;;;33.70;;
75689;SDS011;64303;53.118;9.044;2023-09-12T06:39:40;72.97;;;33.53;;
75689;SDS011;64303;53.118;9.044;2023-09-12T06:42:07;70.10;;;34.90;;
75689;SDS011;64303;53.118;9.044;2023-09-12T06:44:33;66.55;;;34.25;;
75689;SDS011;64303;53.118;9.044;2023-09-12T06:47:00;75.95;;;37.50;;
75689;SDS011;64303;53.118;9.044;2023-09-12T06:49:27;74.72;;;36.63;;
75689;SDS011;64303;53.118;9.044;2023-09-12T06:51:53;78.13;;;35.10;;
75689;SDS011;64303;53.118;9.044;2023-09-12T06:54:21;78.25;;;34.95;;
75689;SDS011;64303;53.118;9.044;2023-09-12T06:56:48;71.85;;;35.03;;
75689;SDS011;64303;53.118;9.044;2023-09-12T06:59:15;67.28;;;33.92;;
75689;SDS011;64303;53.118;9.044;2023-09-12T07:01:41;64.57;;;35.00;;
75689;SDS011;64303;53.118;9.044;2023-09-12T07:04:08;63.40;;;32.35;;
75689;SDS011;64303;53.118;9.044;2023-09-12T07:06:35;70.43;;;33.05;;
75689;SDS011;64303;53.118;9.044;2023-09-12T07:09:02;67.57;;;33.53;;
75689;SDS011;64303;53.118;9.044;2023-09-12T07:11:31;63.40;;;33.55;;
75689;SDS011;64303;53.118;9.044;2023-09-12T07:13:57;59.80;;;31.58;;
75689;SDS011;64303;53.118;9.044;2023-09-12T07:16:24;59.70;;;31.73;;
75689;SDS011;64303;53.118;9.044;2023-09-12T07:18:51;54.95;;;30.42;;
75689;SDS011;64303;53.118;9.044;2023-09-12T07:21:18;55.38;;;30.77;;
75689;SDS011;64303;53.118;9.044;2023-09-12T07:23:45;53.13;;;28.90;;
75689;SDS011;64303;53.118;9.044;2023-09-12T07:26:12;57.45;;;31.27;;
75689;SDS011;64303;53.118;9.044;2023-09-12T07:28:40;54.35;;;30.98;;
75689;SDS011;64303;53.118;9.044;2023-09-12T07:31:07;52.85;;;30.48;;
75689;SDS011;64303;53.118;9.044;2023-09-12T07:33:33;48.78;;;28.85;;
75689;SDS011;64303;53.118;9.044;2023-09-12T07:36:00;52.33;;;31.00;;
75689;SDS011;64303;53.118;9.044;2023-09-12T07:40:56;46.78;;;27.40;;
75689;SDS011;64303;53.118;9.044;2023-09-12T07:43:23;46.38;;;29.92;;
75689;SDS011;64303;53.118;9.044;2023-09-12T07:45:55;52.17;;;30.13;;
75689;SDS011;64303;53.118;9.044;2023-09-12T07:48:22;49.97;;;29.77;;
75689;SDS011;64303;53.118;9.044;2023-09-12T07:50:49;49.00;;;29.30;;
75689;SDS011;64303;53.118;9.044;2023-09-12T07:55:43;52.38;;;30.92;;
75689;SDS011;64303;53.118;9.044;2023-09-12T07:58:12;47.00;;;30.60;;
75689;SDS011;64303;53.118;9.044;2023-09-12T08:00:39;46.13;;;27.88;;
75689;SDS011;64303;53.118;9.044;2023-09-12T08:03:08;46.03;;;29.00;;
75689;SDS011;64303;53.118;9.044;2023-09-12T08:05:35;46.13;;;29.00;;
75689;SDS011;64303;53.118;9.044;2023-09-12T08:08:02;46.90;;;28.80;;
75689;SDS011;64303;53.118;9.044;2023-09-12T08:10:29;44.65;;;28.88;;
75689;SDS011;64303;53.118;9.044;2023-09-12T08:12:55;38.72;;;26.58;;
75689;SDS011;64303;53.118;9.044;2023-09-12T08:15:22;47.83;;;27.55;;
75689;SDS011;64303;53.118;9.044;2023-09-12T08:17:48;40.13;;;27.50;;
75689;SDS011;64303;53.118;9.044;2023-09-12T08:20:18;51.97;;;26.90;;
75689;SDS011;64303;53.118;9.044;2023-09-12T08:22:45;39.15;;;25.27;;
75689;SDS011;64303;53.118;9.044;2023-09-12T08:25:12;37.55;;;25.42;;
75689;SDS011;64303;53.118;9.044;2023-09-12T08:27:39;38.08;;;26.00;;
75689;SDS011;64303;53.118;9.044;2023-09-12T08:30:08;33.45;;;22.08;;
75689;SDS011;64303;53.118;9.044;2023-09-12T08:32:35;32.38;;;22.25;;
75689;SDS011;64303;53.118;9.044;2023-09-12T08:35:05;33.88;;;20.58;;
75689;SDS011;64303;53.118;9.044;2023-09-12T08:37:33;36.50;;;23.52;;
75689;SDS011;64303;53.118;9.044;2023-09-12T08:40:00;35.20;;;23.90;;
75689;SDS011;64303;53.118;9.044;2023-09-12T08:42:27;31.08;;;20.77;;
75689;SDS011;64303;53.118;9.044;2023-09-12T08:44:54;28.05;;;20.83;;
75689;SDS011;64303;53.118;9.044;2023-09-12T08:47:21;33.00;;;20.85;;
75689;SDS011;64303;53.118;9.044;2023-09-12T08:49:49;31.40;;;21.35;;
75689;SDS011;64303;53.118;9.044;2023-09-12T08:52:15;31.52;;;20.85;;
75689;SDS011;64303;53.118;9.044;2023-09-12T08:54:44;31.05;;;21.73;;
75689;SDS011;64303;53.118;9.044;2023-09-12T08:57:10;31.50;;;20.85;;
75689;SDS011;64303;53.118;9.044;2023-09-12T08:59:38;34.75;;;23.02;;
75689;SDS011;64303;53.118;9.044;2023-09-12T09:02:06;37.58;;;23.85;;
75689;SDS011;64303;53.118;9.044;2023-09-12T09:04:35;36.00;;;23.70;;
75689;SDS011;64303;53.118;9.044;2023-09-12T09:07:03;33.88;;;23.13;;
75689;SDS011;64303;53.118;9.044;2023-09-12T09:09:30;34.88;;;22.98;;
75689;SDS011;64303;53.118;9.044;2023-09-12T09:11:59;37.95;;;24.33;;
75689;SDS011;64303;53.118;9.044;2023-09-12T09:14:25;32.17;;;22.13;;
75689;SDS011;64303;53.118;9.044;2023-09-12T09:16:52;30.70;;;20.98;;
75689;SDS011;64303;53.118;9.044;2023-09-12T09:19:20;31.38;;;20.75;;
75689;SDS011;64303;53.118;9.044;2023-09-12T09:21:46;28.67;;;19.30;;
75689;SDS011;64303;53.118;9.044;2023-09-12T09:24:13;27.58;;;18.13;;
75689;SDS011;64303;53.118;9.044;2023-09-12T09:26:42;29.23;;;19.40;;
75689;SDS011;64303;53.118;9.044;2023-09-12T09:29:12;29.70;;;19.63;;
75689;SDS011;64303;53.118;9.044;2023-09-12T09:31:40;31.00;;;18.73;;
75689;SDS011;64303;53.118;9.044;2023-09-12T09:36:36;30.52;;;19.40;;
75689;SDS011;64303;53.118;9.044;2023-09-12T09:39:03;35.28;;;19.75;;
75689;SDS011;64303;53.118;9.044;2023-09-12T09:41:30;30.52;;;20.45;;
75689;SDS011;64303;53.118;9.044;2023-09-12T09:43:58;28.98;;;21.38;;
75689;SDS011;64303;53.118;9.044;2023-09-12T09:46:27;30.02;;;20.60;;
75689;SDS011;64303;53.118;9.044;2023-09-12T09:48:53;26.65;;;18.05;;
75689;SDS011;64303;53.118;9.044;2023-09-12T09:51:20;27.92;;;19.17;;
75689;SDS011;64303;53.118;9.044;2023-09-12T09:53:48;23.42;;;16.35;;
75689;SDS011;64303;53.118;9.044;2023-09-12T09:56:17;26.15;;;17.35;;
75689;SDS011;64303;53.118;9.044;2023-09-12T09:58:47;24.35;;;16.63;;
75689;SDS011;64303;53.118;9.044;2023-09-12T10:01:14;27.45;;;17.08;;
75689;SDS011;64303;53.118;9.044;2023-09-12T10:03:45;26.00;;;17.25;;
75689;SDS011;64303;53.118;9.044;2023-09-12T10:06:14;25.35;;;17.42;;
75689;SDS011;64303;53.118;9.044;2023-09-12T10:08:42;24.92;;;18.48;;
75689;SDS011;64303;53.118;9.044;2023-09-12T10:11:09;25.85;;;15.70;;
75689;SDS011;64303;53.118;9.044;2023-09-12T10:13:36;26.48;;;17.95;;
75689;SDS011;64303;53.118;9.044;2023-09-12T10:16:05;24.48;;;16.45;;
75689;SDS011;64303;53.118;9.044;2023-09-12T10:18:34;25.63;;;17.23;;
75689;SDS011;64303;53.118;9.044;2023-09-12T10:21:04;26.73;;;18.48;;
75689;SDS011;64303;53.118;9.044;2023-09-12T10:23:37;27.10;;;17.63;;
75689;SDS011;64303;53.118;9.044;2023-09-12T10:26:08;24.33;;;16.52;;
75689;SDS011;64303;53.118;9.044;2023-09-12T10:28:37;23.45;;;18.45;;
75689;SDS011;64303;53.118;9.044;2023-09-12T10:31:05;24.35;;;15.98;;
75689;SDS011;64303;53.118;9.044;2023-09-12T10:33:33;26.00;;;18.08;;
75689;SDS011;64303;53.118;9.044;2023-09-12T10:36:00;26.42;;;18.45;;
75689;SDS011;64303;53.118;9.044;2023-09-12T10:38:31;22.42;;;16.98;;
75689;SDS011;64303;53.118;9.044;2023-09-12T10:40:59;24.58;;;17.98;;
75689;SDS011;64303;53.118;9.044;2023-09-12T10:43:27;25.02;;;18.48;;
75689;SDS011;64303;53.118;9.044;2023-09-12T10:45:54;22.45;;;16.63;;
75689;SDS011;64303;53.118;9.044;2023-09-12T10:48:21;21.15;;;15.27;;
75689;SDS011;64303;53.118;9.044;2023-09-12T10:50:48;23.98;;;16.55;;
75689;SDS011;64303;53.118;9.044;2023-09-12T10:53:15;22.20;;;15.98;;
75689;SDS011;64303;53.118;9.044;2023-09-12T10:55:44;21.38;;;15.90;;
75689;SDS011;64303;53.118;9.044;2023-09-12T10:58:24;24.48;;;17.23;;
75689;SDS011;64303;53.118;9.044;2023-09-12T11:03:49;23.60;;;16.85;;
75689;SDS011;64303;53.118;9.044;2023-09-12T11:06:22;23.20;;;17.40;;
75689;SDS011;64303;53.118;9.044;2023-09-12T11:11:46;22.58;;;16.10;;
75689;SDS011;64303;53.118;9.044;2023-09-12T11:14:14;23.02;;;14.40;;
75689;SDS011;64303;53.118;9.044;2023-09-12T11:16:41;20.38;;;15.05;;
75689;SDS011;64303;53.118;9.044;2023-09-12T11:19:12;21.02;;;15.23;;
75689;SDS011;64303;53.118;9.044;2023-09-12T11:21:39;22.15;;;18.75;;
75689;SDS011;64303;53.118;9.044;2023-09-12T11:24:06;20.85;;;14.50;;
75689;SDS011;64303;53.118;9.044;2023-09-12T11:26:33;20.77;;;15.10;;
75689;SDS011;64303;53.118;9.044;2023-09-12T11:29:11;19.92;;;16.48;;
75689;SDS011;64303;53.118;9.044;2023-09-12T11:31:38;21.20;;;15.57;;
75689;SDS011;64303;53.118;9.044;2023-09-12T11:34:08;20.40;;;15.70;;
75689;SDS011;64303;53.118;9.044;2023-09-12T11:36:37;20.75;;;14.80;;
75689;SDS011;64303;53.118;9.044;2023-09-12T11:39:14;23.55;;;18.25;;
75689;SDS011;64303;53.118;9.044;2023-09-12T11:41:48;20.95;;;14.82;;
75689;SDS011;64303;53.118;9.044;2023-09-12T11:44:17;21.25;;;16.35;;
75689;SDS011;64303;53.118;9.044;2023-09-12T11:46:44;19.55;;;14.13;;
75689;SDS011;64303;53.118;9.044;2023-09-12T11:49:14;19.52;;;13.90;;
75689;SDS011;64303;53.118;9.044;2023-09-12T11:51:47;21.42;;;15.50;;
75689;SDS011;64303;53.118;9.044;2023-09-12T11:54:15;20.08;;;15.43;;
75689;SDS011;64303;53.118;9.044;2023-09-12T11:56:42;23.40;;;19.13;;
75689;SDS011;64303;53.118;9.044;2023-09-12T11:59:09;23.45;;;16.95;;
75689;SDS011;64303;53.118;9.044;2023-09-12T12:01:37;22.20;;;16.35;;
75689;SDS011;64303;53.118;9.044;2023-09-12T12:04:03;20.17;;;15.55;;
75689;SDS011;64303;53.118;9.044;2023-09-12T12:06:32;26.05;;;17.67;;
75689;SDS011;64303;53.118;9.044;2023-09-12T12:09:01;23.50;;;16.52;;
75689;SDS011;64303;53.118;9.044;2023-09-12T12:11:29;28.35;;;16.98;;
75689;SDS011;64303;53.118;9.044;2023-09-12T12:13:56;21.48;;;17.33;;
75689;SDS011;64303;53.118;9.044;2023-09-12T12:16:24;23.20;;;16.63;;
75689;SDS011;64303;53.118;9.044;2023-09-12T12:18:53;26.10;;;18.08;;
75689;SDS011;64303;53.118;9.044;2023-09-12T12:21:21;25.67;;;17.45;;
75689;SDS011;64303;53.118;9.044;2023-09-12T12:23:57;24.48;;;17.25;;
75689;SDS011;64303;53.118;9.044;2023-09-12T12:26:24;24.02;;;17.42;;
75689;SDS011;64303;53.118;9.044;2023-09-12T12:28:51;22.90;;;15.60;;
75689;SDS011;64303;53.118;9.044;2023-09-12T12:31:17;22.67;;;17.75;;
75689;SDS011;64303;53.118;9.044;2023-09-12T12:33:47;21.45;;;15.82;;
75689;SDS011;64303;53.118;9.044;2023-09-12T12:36:15;23.02;;;17.08;;
75689;SDS011;64303;53.118;9.044;2023-09-12T12:38:42;23.67;;;17.95;;
75689;SDS011;64303;53.118;9.044;2023-09-12T12:41:12;23.88;;;16.88;;
75689;SDS011;64303;53.118;9.044;2023-09-12T12:43:39;23.77;;;18.67;;
75689;SDS011;64303;53.118;9.044;2023-09-12T12:46:09;24.20;;;17.50;;
75689;SDS011;64303;53.118;9.044;2023-09-12T12:48:37;23.58;;;16.13;;
75689;SDS011;64303;53.118;9.044;2023-09-12T12:51:13;21.42;;;15.95;;
75689;SDS011;64303;53.118;9.044;2023-09-12T12:53:43;25.67;;;16.95;;
75689;SDS011;64303;53.118;9.044;2023-09-12T12:56:15;21.30;;;16.33;;
75689;SDS011;64303;53.118;9.044;2023-09-12T12:58:47;20.38;;;14.88;;
75689;SDS011;64303;53.118;9.044;2023-09-12T13:01:15;20.73;;;16.95;;
75689;SDS011;64303;53.118;9.044;2023-09-12T13:03:42;20.15;;;15.75;;
75689;SDS011;64303;53.118;9.044;2023-09-12T13:06:08;18.85;;;13.60;;
75689;SDS011;64303;53.118;9.044;2023-09-12T13:08:39;18.00;;;14.98;;
75689;SDS011;64303;53.118;9.044;2023-09-12T13:11:11;17.77;;;14.38;;
75689;SDS011;64303;53.118;9.044;2023-09-12T13:13:40;18.40;;;14.38;;
75689;SDS011;64303;53.118;9.044;2023-09-12T13:16:08;18.80;;;13.98;;
75689;SDS011;64303;53.118;9.044;2023-09-12T13:21:01;19.10;;;12.10;;
75689;SDS011;64303;53.118;9.044;2023-09-12T13:23:28;16.45;;;12.90;;
75689;SDS011;64303;53.118;9.044;2023-09-12T13:25:56;20.15;;;13.85;;
75689;SDS011;64303;53.118;9.044;2023-09-12T13:28:24;16.48;;;11.93;;
75689;SDS011;64303;53.118;9.044;2023-09-12T13:30:55;14.95;;;11.13;;
75689;SDS011;64303;53.118;9.044;2023-09-12T13:33:22;13.85;;;10.52;;
75689;SDS011;64303;53.118;9.044;2023-09-12T13:35:50;14.90;;;11.18;;
75689;SDS011;64303;53.118;9.044;2023-09-12T13:38:20;15.43;;;11.05;;
75689;SDS011;64303;53.118;9.044;2023-09-12T13:40:48;15.65;;;10.80;;
75689;SDS011;64303;53.118;9.044;2023-09-12T13:43:16;15.93;;;11.68;;
75689;SDS011;64303;53.118;9.044;2023-09-12T13:45:43;14.48;;;11.02;;
75689;SDS011;64303;53.118;9.044;2023-09-12T13:48:10;14.40;;;10.23;;
75689;SDS011;64303;53.118;9.044;2023-09-12T13:50:37;13.80;;;11.63;;
75689;SDS011;64303;53.118;9.044;2023-09-12T13:53:04;15.95;;;10.48;;
75689;SDS011;64303;53.118;9.044;2023-09-12T13:55:32;13.57;;;10.52;;
75689;SDS011;64303;53.118;9.044;2023-09-12T13:58:00;13.98;;;10.18;;
75689;SDS011;64303;53.118;9.044;2023-09-12T14:00:29;12.75;;;10.48;;
75689;SDS011;64303;53.118;9.044;2023-09-12T14:02:55;13.90;;;10.48;;
75689;SDS011;64303;53.118;9.044;2023-09-12T14:05:22;14.80;;;10.10;;
75689;SDS011;64303;53.118;9.044;2023-09-12T14:07:49;14.38;;;10.88;;
75689;SDS011;64303;53.118;9.044;2023-09-12T14:10:16;14.70;;;10.98;;
75689;SDS011;64303;53.118;9.044;2023-09-12T14:12:43;14.07;;;12.57;;
75689;SDS011;64303;53.118;9.044;2023-09-12T14:15:11;14.20;;;9.90;;
75689;SDS011;64303;53.118;9.044;2023-09-12T14:17:41;12.65;;;8.60;;
75689;SDS011;64303;53.118;9.044;2023-09-12T14:20:08;12.75;;;9.90;;
75689;SDS011;64303;53.118;9.044;2023-09-12T14:22:35;13.00;;;9.98;;
75689;SDS011;64303;53.118;9.044;2023-09-12T14:25:02;12.68;;;8.80;;
75689;SDS011;64303;53.118;9.044;2023-09-12T14:27:29;9.98;;;7.85;;
75689;SDS011;64303;53.118;9.044;2023-09-12T14:29:56;12.55;;;9.00;;
75689;SDS011;64303;53.118;9.044;2023-09-12T14:32:24;11.90;;;7.93;;
75689;SDS011;64303;53.118;9.044;2023-09-12T14:34:52;12.98;;;8.52;;
75689;SDS011;64303;53.118;9.044;2023-09-12T14:37:19;13.13;;;9.75;;
75689;SDS011;64303;53.118;9.044;2023-09-12T14:39:47;13.68;;;9.50;;
75689;SDS011;64303;53.118;9.044;2023-09-12T14:42:14;13.40;;;9.98;;
75689;SDS011;64303;53.118;9.044;2023-09-12T14:44:41;13.02;;;9.35;;